sensor_id;sensor_type;location;lat;lon;timestamp;P1;durP1;ratioP1;P2;durP2;ratioP2
18501;SDS011;68437;52.236;5.710;2023-07-31T00:01:20;5.25;;;3.25;;
18501;SDS011;68437;52.236;5.710;2023-07-31T00:03:47;4.30;;;3.00;;
18501;SDS011;68437;52.236;5.710;2023-07-31T00:06:13;4.22;;;3.20;;
18501;SDS011;68437;52.236;5.710;2023-07-31T00:08:40;5.82;;;3.10;;
18501;SDS011;68437;52.236;5.710;2023-07-31T00:11:07;4.13;;;3.10;;
18501;SDS011;68437;52.236;5.710;2023-07-31T00:13:34;5.88;;;3.42;;
18501;SDS011;68437;52.236;5.710;2023-07-31T00:16:01;4.70;;;3.08;;
18501;SDS011;68437;52.236;5.710;2023-07-31T00:18:29;5.90;;;3.58;;
18501;SDS011;68437;52.236;5.710;2023-07-31T00:20:56;5.95;;;3.70;;
18501;SDS011;68437;52.236;5.710;2023-07-31T00:23:23;6.53;;;3.72;;
18501;SDS011;68437;52.236;5.710;2023-07-31T00:25:49;5.80;;;3.83;;
18501;SDS011;68437;52.236;5.710;2023-07-31T00:28:16;5.82;;;3.60;;
18501;SDS011;68437;52.236;5.710;2023-07-31T00:30:43;8.07;;;4.13;;
18501;SDS011;68437;52.236;5.710;2023-07-31T00:33:10;5.88;;;4.10;;
18501;SDS011;68437;52.236;5.710;2023-07-31T00:35:38;7.60;;;4.90;;
18501;SDS011;68437;52.236;5.710;2023-07-31T00:38:05;6.75;;;4.45;;
18501;SDS011;68437;52.236;5.710;2023-07-31T00:40:34;7.18;;;4.68;;
18501;SDS011;68437;52.236;5.710;2023-07-31T00:43:02;5.85;;;4.43;;
18501;SDS011;68437;52.236;5.710;2023-07-31T00:45:29;5.97;;;4.07;;
18501;SDS011;68437;52.236;5.710;2023-07-31T00:47:56;6.35;;;3.90;;
18501;SDS011;68437;52.236;5.710;2023-07-31T00:50:24;6.03;;;3.70;;
18501;SDS011;68437;52.236;5.710;2023-07-31T00:52:52;8.70;;;3.35;;
18501;SDS011;68437;52.236;5.710;2023-07-31T00:55:19;4.45;;;2.80;;
18501;SDS011;68437;52.236;5.710;2023-07-31T00:57:47;3.85;;;2.50;;
18501;SDS011;68437;52.236;5.710;2023-07-31T01:00:15;7.32;;;2.88;;
18501;SDS011;68437;52.236;5.710;2023-07-31T01:02:42;6.90;;;2.83;;
18501;SDS011;68437;52.236;5.710;2023-07-31T01:05:09;5.28;;;2.47;;
18501;SDS011;68437;52.236;5.710;2023-07-31T01:07:38;4.72;;;2.35;;
18501;SDS011;68437;52.236;5.710;2023-07-31T01:10:16;4.75;;;2.80;;
18501;SDS011;68437;52.236;5.710;2023-07-31T01:12:47;7.88;;;3.22;;
18501;SDS011;68437;52.236;5.710;2023-07-31T01:15:14;7.28;;;3.60;;
18501;SDS011;68437;52.236;5.710;2023-07-31T01:17:42;6.78;;;3.33;;
18501;SDS011;68437;52.236;5.710;2023-07-31T01:20:10;8.27;;;4.40;;
18501;SDS011;68437;52.236;5.710;2023-07-31T01:22:47;11.23;;;5.38;;
18501;SDS011;68437;52.236;5.710;2023-07-31T01:25:31;12.00;;;5.63;;
18501;SDS011;68437;52.236;5.710;2023-07-31T01:28:20;13.20;;;6.32;;
18501;SDS011;68437;52.236;5.710;2023-07-31T01:30:51;15.40;;;6.45;;
18501;SDS011;68437;52.236;5.710;2023-07-31T01:33:21;17.10;;;6.57;;
18501;SDS011;68437;52.236;5.710;2023-07-31T01:35:48;19.40;;;6.20;;
18501;SDS011;68437;52.236;5.710;2023-07-31T01:38:16;17.73;;;5.40;;
18501;SDS011;68437;52.236;5.710;2023-07-31T01:40:49;14.80;;;5.07;;
18501;SDS011;68437;52.236;5.710;2023-07-31T01:43:19;13.50;;;4.78;;
18501;SDS011;68437;52.236;5.710;2023-07-31T01:45:46;14.25;;;4.63;;
18501;SDS011;68437;52.236;5.710;2023-07-31T01:48:13;16.02;;;4.95;;
18501;SDS011;68437;52.236;5.710;2023-07-31T01:50:40;15.63;;;5.55;;
18501;SDS011;68437;52.236;5.710;2023-07-31T01:53:07;16.00;;;4.88;;
18501;SDS011;68437;52.236;5.710;2023-07-31T01:55:34;15.43;;;4.15;;
18501;SDS011;68437;52.236;5.710;2023-07-31T01:58:01;12.55;;;4.97;;
18501;SDS011;68437;52.236;5.710;2023-07-31T02:00:29;11.98;;;4.70;;
18501;SDS011;68437;52.236;5.710;2023-07-31T02:02:56;9.40;;;4.13;;
18501;SDS011;68437;52.236;5.710;2023-07-31T02:05:23;12.98;;;4.70;;
18501;SDS011;68437;52.236;5.710;2023-07-31T02:07:49;18.02;;;4.57;;
18501;SDS011;68437;52.236;5.710;2023-07-31T02:10:16;11.40;;;4.60;;
18501;SDS011;68437;52.236;5.710;2023-07-31T02:12:43;13.93;;;4.88;;
18501;SDS011;68437;52.236;5.710;2023-07-31T02:15:10;16.08;;;4.55;;
18501;SDS011;68437;52.236;5.710;2023-07-31T02:17:38;13.77;;;4.20;;
18501;SDS011;68437;52.236;5.710;2023-07-31T02:20:06;12.00;;;4.85;;
18501;SDS011;68437;52.236;5.710;2023-07-31T02:22:33;10.38;;;4.25;;
18501;SDS011;68437;52.236;5.710;2023-07-31T02:25:00;17.40;;;5.53;;
18501;SDS011;68437;52.236;5.710;2023-07-31T02:27:27;24.63;;;6.03;;
18501;SDS011;68437;52.236;5.710;2023-07-31T02:29:54;14.50;;;5.60;;
18501;SDS011;68437;52.236;5.710;2023-07-31T02:32:21;16.58;;;6.53;;
18501;SDS011;68437;52.236;5.710;2023-07-31T02:34:49;18.52;;;6.50;;
18501;SDS011;68437;52.236;5.710;2023-07-31T02:37:16;26.55;;;7.85;;
18501;SDS011;68437;52.236;5.710;2023-07-31T02:39:43;32.42;;;8.02;;
18501;SDS011;68437;52.236;5.710;2023-07-31T02:42:09;28.63;;;8.85;;
18501;SDS011;68437;52.236;5.710;2023-07-31T02:44:36;38.80;;;9.45;;
18501;SDS011;68437;52.236;5.710;2023-07-31T02:47:03;34.58;;;9.82;;
18501;SDS011;68437;52.236;5.710;2023-07-31T02:49:30;42.80;;;10.38;;
18501;SDS011;68437;52.236;5.710;2023-07-31T02:51:58;39.65;;;10.27;;
18501;SDS011;68437;52.236;5.710;2023-07-31T02:54:25;51.45;;;11.50;;
18501;SDS011;68437;52.236;5.710;2023-07-31T02:56:52;43.47;;;10.85;;
18501;SDS011;68437;52.236;5.710;2023-07-31T02:59:20;42.58;;;11.38;;
18501;SDS011;68437;52.236;5.710;2023-07-31T03:01:47;44.22;;;11.45;;
18501;SDS011;68437;52.236;5.710;2023-07-31T03:04:14;45.20;;;12.07;;
18501;SDS011;68437;52.236;5.710;2023-07-31T03:06:40;50.58;;;12.75;;
18501;SDS011;68437;52.236;5.710;2023-07-31T03:09:09;41.42;;;11.55;;
18501;SDS011;68437;52.236;5.710;2023-07-31T03:11:35;56.97;;;12.13;;
18501;SDS011;68437;52.236;5.710;2023-07-31T03:14:04;43.47;;;11.77;;
18501;SDS011;68437;52.236;5.710;2023-07-31T03:16:31;47.45;;;11.77;;
18501;SDS011;68437;52.236;5.710;2023-07-31T03:18:58;53.65;;;11.50;;
18501;SDS011;68437;52.236;5.710;2023-07-31T03:21:25;41.72;;;10.70;;
18501;SDS011;68437;52.236;5.710;2023-07-31T03:23:52;46.92;;;11.73;;
18501;SDS011;68437;52.236;5.710;2023-07-31T03:26:20;51.30;;;11.45;;
18501;SDS011;68437;52.236;5.710;2023-07-31T03:28:47;32.97;;;10.05;;
18501;SDS011;68437;52.236;5.710;2023-07-31T03:31:14;42.35;;;11.02;;
18501;SDS011;68437;52.236;5.710;2023-07-31T03:33:41;40.08;;;11.20;;
18501;SDS011;68437;52.236;5.710;2023-07-31T03:36:08;44.88;;;11.25;;
18501;SDS011;68437;52.236;5.710;2023-07-31T03:38:35;45.53;;;11.75;;
18501;SDS011;68437;52.236;5.710;2023-07-31T03:41:02;53.25;;;12.50;;
18501;SDS011;68437;52.236;5.710;2023-07-31T03:43:32;47.17;;;12.43;;
18501;SDS011;68437;52.236;5.710;2023-07-31T03:45:59;49.20;;;12.27;;
18501;SDS011;68437;52.236;5.710;2023-07-31T03:48:27;42.20;;;13.20;;
18501;SDS011;68437;52.236;5.710;2023-07-31T03:50:54;42.22;;;12.65;;
18501;SDS011;68437;52.236;5.710;2023-07-31T03:53:21;53.80;;;14.02;;
18501;SDS011;68437;52.236;5.710;2023-07-31T03:55:48;48.25;;;13.80;;
18501;SDS011;68437;52.236;5.710;2023-07-31T03:58:15;43.55;;;12.88;;
18501;SDS011;68437;52.236;5.710;2023-07-31T04:00:43;47.75;;;13.45;;
18501;SDS011;68437;52.236;5.710;2023-07-31T04:03:11;48.25;;;13.52;;
18501;SDS011;68437;52.236;5.710;2023-07-31T04:05:38;47.17;;;12.98;;
18501;SDS011;68437;52.236;5.710;2023-07-31T04:08:05;58.47;;;13.18;;
18501;SDS011;68437;52.236;5.710;2023-07-31T04:10:32;48.33;;;13.32;;
18501;SDS011;68437;52.236;5.710;2023-07-31T04:12:59;54.60;;;13.48;;
18501;SDS011;68437;52.236;5.710;2023-07-31T04:15:26;52.90;;;13.52;;
18501;SDS011;68437;52.236;5.710;2023-07-31T04:17:54;53.00;;;13.23;;
18501;SDS011;68437;52.236;5.710;2023-07-31T04:20:21;44.60;;;12.50;;
18501;SDS011;68437;52.236;5.710;2023-07-31T04:22:48;48.72;;;12.80;;
18501;SDS011;68437;52.236;5.710;2023-07-31T04:25:15;52.80;;;13.07;;
18501;SDS011;68437;52.236;5.710;2023-07-31T04:27:42;48.00;;;13.02;;
18501;SDS011;68437;52.236;5.710;2023-07-31T04:30:09;48.55;;;12.15;;
18501;SDS011;68437;52.236;5.710;2023-07-31T04:32:36;54.95;;;13.30;;
18501;SDS011;68437;52.236;5.710;2023-07-31T04:35:05;49.28;;;12.80;;
18501;SDS011;68437;52.236;5.710;2023-07-31T04:37:32;41.42;;;12.38;;
18501;SDS011;68437;52.236;5.710;2023-07-31T04:39:59;58.22;;;12.35;;
18501;SDS011;68437;52.236;5.710;2023-07-31T04:42:26;52.00;;;12.43;;
18501;SDS011;68437;52.236;5.710;2023-07-31T04:44:52;49.85;;;12.30;;
18501;SDS011;68437;52.236;5.710;2023-07-31T04:47:19;49.85;;;12.60;;
18501;SDS011;68437;52.236;5.710;2023-07-31T04:49:46;41.50;;;12.15;;
18501;SDS011;68437;52.236;5.710;2023-07-31T04:52:14;49.88;;;12.80;;
18501;SDS011;68437;52.236;5.710;2023-07-31T04:54:41;40.90;;;11.63;;
18501;SDS011;68437;52.236;5.710;2023-07-31T04:57:08;55.22;;;13.45;;
18501;SDS011;68437;52.236;5.710;2023-07-31T04:59:35;42.88;;;12.48;;
18501;SDS011;68437;52.236;5.710;2023-07-31T05:02:02;50.53;;;12.07;;
18501;SDS011;68437;52.236;5.710;2023-07-31T05:04:29;44.50;;;12.32;;
18501;SDS011;68437;52.236;5.710;2023-07-31T05:06:56;46.25;;;12.10;;
18501;SDS011;68437;52.236;5.710;2023-07-31T05:09:24;42.08;;;11.40;;
18501;SDS011;68437;52.236;5.710;2023-07-31T05:11:51;42.05;;;12.45;;
18501;SDS011;68437;52.236;5.710;2023-07-31T05:14:18;39.20;;;12.50;;
18501;SDS011;68437;52.236;5.710;2023-07-31T05:16:45;51.70;;;12.95;;
18501;SDS011;68437;52.236;5.710;2023-07-31T05:19:12;40.47;;;12.45;;
18501;SDS011;68437;52.236;5.710;2023-07-31T05:21:39;45.10;;;12.68;;
18501;SDS011;68437;52.236;5.710;2023-07-31T05:24:06;47.08;;;13.23;;
18501;SDS011;68437;52.236;5.710;2023-07-31T05:26:34;36.72;;;12.57;;
18501;SDS011;68437;52.236;5.710;2023-07-31T05:29:01;43.92;;;13.32;;
18501;SDS011;68437;52.236;5.710;2023-07-31T05:31:28;49.47;;;13.13;;
18501;SDS011;68437;52.236;5.710;2023-07-31T05:33:57;41.13;;;13.10;;
18501;SDS011;68437;52.236;5.710;2023-07-31T05:36:24;46.72;;;12.90;;
18501;SDS011;68437;52.236;5.710;2023-07-31T05:38:51;41.97;;;12.52;;
18501;SDS011;68437;52.236;5.710;2023-07-31T05:41:18;41.25;;;13.10;;
18501;SDS011;68437;52.236;5.710;2023-07-31T05:43:46;37.25;;;12.48;;
18501;SDS011;68437;52.236;5.710;2023-07-31T05:46:13;33.33;;;11.80;;
18501;SDS011;68437;52.236;5.710;2023-07-31T05:48:39;33.13;;;11.02;;
18501;SDS011;68437;52.236;5.710;2023-07-31T05:51:06;42.38;;;11.75;;
18501;SDS011;68437;52.236;5.710;2023-07-31T05:53:33;35.85;;;11.50;;
18501;SDS011;68437;52.236;5.710;2023-07-31T05:56:01;38.33;;;11.07;;
18501;SDS011;68437;52.236;5.710;2023-07-31T05:58:28;33.85;;;10.50;;
18501;SDS011;68437;52.236;5.710;2023-07-31T06:00:56;28.88;;;9.20;;
18501;SDS011;68437;52.236;5.710;2023-07-31T06:03:23;27.52;;;9.07;;
18501;SDS011;68437;52.236;5.710;2023-07-31T06:05:49;30.05;;;9.68;;
18501;SDS011;68437;52.236;5.710;2023-07-31T06:08:16;28.48;;;8.57;;
18501;SDS011;68437;52.236;5.710;2023-07-31T06:10:43;24.33;;;8.95;;
18501;SDS011;68437;52.236;5.710;2023-07-31T06:13:10;21.77;;;7.63;;
18501;SDS011;68437;52.236;5.710;2023-07-31T06:15:37;21.60;;;7.95;;
18501;SDS011;68437;52.236;5.710;2023-07-31T06:18:05;20.90;;;8.27;;
18501;SDS011;68437;52.236;5.710;2023-07-31T06:20:33;20.90;;;9.07;;
18501;SDS011;68437;52.236;5.710;2023-07-31T06:23:00;22.58;;;9.00;;
18501;SDS011;68437;52.236;5.710;2023-07-31T06:25:27;20.30;;;9.60;;
18501;SDS011;68437;52.236;5.710;2023-07-31T06:27:54;23.02;;;10.02;;
18501;SDS011;68437;52.236;5.710;2023-07-31T06:30:21;24.33;;;9.65;;
18501;SDS011;68437;52.236;5.710;2023-07-31T06:32:48;26.85;;;10.13;;
18501;SDS011;68437;52.236;5.710;2023-07-31T06:35:16;22.20;;;9.70;;
18501;SDS011;68437;52.236;5.710;2023-07-31T06:37:43;22.52;;;10.30;;
18501;SDS011;68437;52.236;5.710;2023-07-31T06:40:10;21.27;;;10.27;;
18501;SDS011;68437;52.236;5.710;2023-07-31T06:42:37;22.50;;;10.65;;
18501;SDS011;68437;52.236;5.710;2023-07-31T06:45:04;20.95;;;10.20;;
18501;SDS011;68437;52.236;5.710;2023-07-31T06:47:32;20.50;;;9.50;;
18501;SDS011;68437;52.236;5.710;2023-07-31T06:49:59;24.88;;;10.25;;
18501;SDS011;68437;52.236;5.710;2023-07-31T06:52:28;22.98;;;10.13;;
18501;SDS011;68437;52.236;5.710;2023-07-31T06:55:01;24.00;;;10.45;;
18501;SDS011;68437;52.236;5.710;2023-07-31T06:57:29;22.52;;;9.57;;
18501;SDS011;68437;52.236;5.710;2023-07-31T06:59:55;21.45;;;9.13;;
18501;SDS011;68437;52.236;5.710;2023-07-31T07:02:22;22.75;;;9.75;;
18501;SDS011;68437;52.236;5.710;2023-07-31T07:04:49;17.40;;;9.10;;
18501;SDS011;68437;52.236;5.710;2023-07-31T07:07:17;20.77;;;8.88;;
18501;SDS011;68437;52.236;5.710;2023-07-31T07:09:45;19.60;;;8.48;;
18501;SDS011;68437;52.236;5.710;2023-07-31T07:12:12;20.98;;;8.23;;
18501;SDS011;68437;52.236;5.710;2023-07-31T07:14:39;17.45;;;7.78;;
18501;SDS011;68437;52.236;5.710;2023-07-31T07:17:06;16.65;;;8.25;;
18501;SDS011;68437;52.236;5.710;2023-07-31T07:19:32;17.58;;;7.88;;
18501;SDS011;68437;52.236;5.710;2023-07-31T07:22:00;17.35;;;7.78;;
18501;SDS011;68437;52.236;5.710;2023-07-31T07:24:27;16.10;;;7.57;;
18501;SDS011;68437;52.236;5.710;2023-07-31T07:26:56;14.82;;;7.20;;
18501;SDS011;68437;52.236;5.710;2023-07-31T07:29:23;17.30;;;8.05;;
18501;SDS011;68437;52.236;5.710;2023-07-31T07:31:50;13.30;;;7.03;;
18501;SDS011;68437;52.236;5.710;2023-07-31T07:34:17;14.20;;;7.35;;
18501;SDS011;68437;52.236;5.710;2023-07-31T07:36:43;16.35;;;7.97;;
18501;SDS011;68437;52.236;5.710;2023-07-31T07:39:10;18.25;;;7.75;;
18501;SDS011;68437;52.236;5.710;2023-07-31T07:41:37;17.30;;;7.90;;
18501;SDS011;68437;52.236;5.710;2023-07-31T07:44:05;16.30;;;8.45;;
18501;SDS011;68437;52.236;5.710;2023-07-31T07:46:33;20.58;;;8.80;;
18501;SDS011;68437;52.236;5.710;2023-07-31T07:49:00;13.43;;;8.18;;
18501;SDS011;68437;52.236;5.710;2023-07-31T07:51:27;16.88;;;8.10;;
18501;SDS011;68437;52.236;5.710;2023-07-31T07:53:55;17.38;;;7.95;;
18501;SDS011;68437;52.236;5.710;2023-07-31T07:56:22;14.27;;;7.15;;
18501;SDS011;68437;52.236;5.710;2023-07-31T07:58:49;12.40;;;7.57;;
18501;SDS011;68437;52.236;5.710;2023-07-31T08:01:18;13.88;;;7.43;;
18501;SDS011;68437;52.236;5.710;2023-07-31T08:03:44;13.68;;;7.78;;
18501;SDS011;68437;52.236;5.710;2023-07-31T08:06:12;11.93;;;7.25;;
18501;SDS011;68437;52.236;5.710;2023-07-31T08:08:38;15.32;;;8.02;;
18501;SDS011;68437;52.236;5.710;2023-07-31T08:11:05;12.90;;;7.63;;
18501;SDS011;68437;52.236;5.710;2023-07-31T08:13:32;15.40;;;8.10;;
18501;SDS011;68437;52.236;5.710;2023-07-31T08:16:01;14.07;;;8.07;;
18501;SDS011;68437;52.236;5.710;2023-07-31T08:18:30;12.98;;;8.02;;
18501;SDS011;68437;52.236;5.710;2023-07-31T08:20:58;14.00;;;7.75;;
18501;SDS011;68437;52.236;5.710;2023-07-31T08:23:25;14.18;;;8.02;;
18501;SDS011;68437;52.236;5.710;2023-07-31T08:25:51;15.25;;;8.20;;
18501;SDS011;68437;52.236;5.710;2023-07-31T08:28:18;15.50;;;8.50;;
18501;SDS011;68437;52.236;5.710;2023-07-31T08:30:45;13.38;;;8.13;;
18501;SDS011;68437;52.236;5.710;2023-07-31T08:33:12;15.75;;;8.82;;
18501;SDS011;68437;52.236;5.710;2023-07-31T08:35:41;13.88;;;8.98;;
18501;SDS011;68437;52.236;5.710;2023-07-31T08:38:07;13.00;;;7.60;;
18501;SDS011;68437;52.236;5.710;2023-07-31T08:40:35;14.48;;;7.80;;
18501;SDS011;68437;52.236;5.710;2023-07-31T08:43:03;13.68;;;8.32;;
18501;SDS011;68437;52.236;5.710;2023-07-31T08:45:30;14.15;;;7.90;;
18501;SDS011;68437;52.236;5.710;2023-07-31T08:47:58;11.27;;;7.72;;
18501;SDS011;68437;52.236;5.710;2023-07-31T08:50:25;12.63;;;8.65;;
18501;SDS011;68437;52.236;5.710;2023-07-31T08:52:54;12.57;;;7.85;;
18501;SDS011;68437;52.236;5.710;2023-07-31T08:55:21;13.23;;;8.02;;
18501;SDS011;68437;52.236;5.710;2023-07-31T08:57:50;14.07;;;8.52;;
18501;SDS011;68437;52.236;5.710;2023-07-31T09:00:19;15.10;;;9.13;;
18501;SDS011;68437;52.236;5.710;2023-07-31T09:02:50;12.73;;;8.32;;
18501;SDS011;68437;52.236;5.710;2023-07-31T09:05:22;12.15;;;8.18;;
18501;SDS011;68437;52.236;5.710;2023-07-31T09:07:49;12.05;;;8.18;;
18501;SDS011;68437;52.236;5.710;2023-07-31T09:10:18;11.65;;;7.78;;
18501;SDS011;68437;52.236;5.710;2023-07-31T09:12:45;8.88;;;6.72;;
18501;SDS011;68437;52.236;5.710;2023-07-31T09:15:13;11.38;;;6.95;;
18501;SDS011;68437;52.236;5.710;2023-07-31T09:17:41;12.95;;;6.88;;
18501;SDS011;68437;52.236;5.710;2023-07-31T09:20:14;12.20;;;7.30;;
18501;SDS011;68437;52.236;5.710;2023-07-31T09:22:42;10.63;;;6.43;;
18501;SDS011;68437;52.236;5.710;2023-07-31T09:25:16;12.32;;;6.45;;
18501;SDS011;68437;52.236;5.710;2023-07-31T09:27:48;11.40;;;6.85;;
18501;SDS011;68437;52.236;5.710;2023-07-31T09:30:16;9.93;;;6.95;;
18501;SDS011;68437;52.236;5.710;2023-07-31T09:32:44;9.68;;;7.13;;
18501;SDS011;68437;52.236;5.710;2023-07-31T09:35:18;9.45;;;6.65;;
18501;SDS011;68437;52.236;5.710;2023-07-31T09:37:50;8.60;;;6.38;;
18501;SDS011;68437;52.236;5.710;2023-07-31T09:40:30;11.25;;;7.03;;
18501;SDS011;68437;52.236;5.710;2023-07-31T09:43:00;9.50;;;7.60;;
18501;SDS011;68437;52.236;5.710;2023-07-31T09:45:27;11.35;;;7.82;;
18501;SDS011;68437;52.236;5.710;2023-07-31T09:47:55;11.60;;;7.53;;
18501;SDS011;68437;52.236;5.710;2023-07-31T09:50:23;10.85;;;7.65;;
18501;SDS011;68437;52.236;5.710;2023-07-31T09:52:51;10.95;;;8.10;;
18501;SDS011;68437;52.236;5.710;2023-07-31T09:55:19;11.32;;;7.05;;
18501;SDS011;68437;52.236;5.710;2023-07-31T09:57:47;11.95;;;7.53;;
18501;SDS011;68437;52.236;5.710;2023-07-31T10:00:16;14.38;;;7.88;;
18501;SDS011;68437;52.236;5.710;2023-07-31T10:02:45;10.57;;;7.47;;
18501;SDS011;68437;52.236;5.710;2023-07-31T10:05:13;10.40;;;7.43;;
18501;SDS011;68437;52.236;5.710;2023-07-31T10:07:42;11.50;;;7.05;;
18501;SDS011;68437;52.236;5.710;2023-07-31T10:10:11;11.27;;;7.03;;
18501;SDS011;68437;52.236;5.710;2023-07-31T10:12:41;13.65;;;7.05;;
18501;SDS011;68437;52.236;5.710;2023-07-31T10:15:09;11.40;;;7.65;;
18501;SDS011;68437;52.236;5.710;2023-07-31T10:17:38;12.63;;;7.40;;
18501;SDS011;68437;52.236;5.710;2023-07-31T10:20:06;11.65;;;7.68;;
18501;SDS011;68437;52.236;5.710;2023-07-31T10:22:34;11.45;;;7.30;;
18501;SDS011;68437;52.236;5.710;2023-07-31T10:25:01;12.07;;;7.15;;
18501;SDS011;68437;52.236;5.710;2023-07-31T10:27:28;12.05;;;6.97;;
18501;SDS011;68437;52.236;5.710;2023-07-31T10:29:56;10.52;;;6.60;;
18501;SDS011;68437;52.236;5.710;2023-07-31T10:32:24;8.18;;;5.28;;
18501;SDS011;68437;52.236;5.710;2023-07-31T10:34:54;8.15;;;5.30;;
18501;SDS011;68437;52.236;5.710;2023-07-31T10:37:22;8.68;;;5.70;;
18501;SDS011;68437;52.236;5.710;2023-07-31T10:40:00;7.70;;;5.65;;
18501;SDS011;68437;52.236;5.710;2023-07-31T10:42:31;11.98;;;6.25;;
18501;SDS011;68437;52.236;5.710;2023-07-31T10:44:59;10.43;;;6.13;;
18501;SDS011;68437;52.236;5.710;2023-07-31T10:47:28;10.73;;;6.80;;
18501;SDS011;68437;52.236;5.710;2023-07-31T10:50:11;10.60;;;7.05;;
18501;SDS011;68437;52.236;5.710;2023-07-31T10:52:39;11.25;;;7.10;;
18501;SDS011;68437;52.236;5.710;2023-07-31T10:55:13;17.13;;;7.45;;
18501;SDS011;68437;52.236;5.710;2023-07-31T10:57:44;15.25;;;8.10;;
18501;SDS011;68437;52.236;5.710;2023-07-31T11:00:18;13.93;;;8.15;;
18501;SDS011;68437;52.236;5.710;2023-07-31T11:02:56;16.70;;;8.70;;
18501;SDS011;68437;52.236;5.710;2023-07-31T11:05:45;15.70;;;8.88;;
18501;SDS011;68437;52.236;5.710;2023-07-31T11:08:13;12.73;;;8.65;;
18501;SDS011;68437;52.236;5.710;2023-07-31T11:10:42;14.20;;;8.82;;
18501;SDS011;68437;52.236;5.710;2023-07-31T11:13:09;14.20;;;9.07;;
18501;SDS011;68437;52.236;5.710;2023-07-31T11:15:36;13.27;;;8.18;;
18501;SDS011;68437;52.236;5.710;2023-07-31T11:18:03;15.38;;;8.35;;
18501;SDS011;68437;52.236;5.710;2023-07-31T11:20:31;14.57;;;8.88;;
18501;SDS011;68437;52.236;5.710;2023-07-31T11:23:01;17.27;;;9.23;;
18501;SDS011;68437;52.236;5.710;2023-07-31T11:25:29;15.55;;;9.27;;
18501;SDS011;68437;52.236;5.710;2023-07-31T11:27:57;16.50;;;9.18;;
18501;SDS011;68437;52.236;5.710;2023-07-31T11:30:24;14.30;;;9.00;;
18501;SDS011;68437;52.236;5.710;2023-07-31T11:32:51;15.00;;;9.32;;
18501;SDS011;68437;52.236;5.710;2023-07-31T11:35:18;12.32;;;7.78;;
18501;SDS011;68437;52.236;5.710;2023-07-31T11:37:44;12.00;;;8.10;;
18501;SDS011;68437;52.236;5.710;2023-07-31T11:40:13;14.68;;;7.97;;
18501;SDS011;68437;52.236;5.710;2023-07-31T11:42:40;15.27;;;7.03;;
18501;SDS011;68437;52.236;5.710;2023-07-31T11:45:07;11.80;;;6.88;;
18501;SDS011;68437;52.236;5.710;2023-07-31T11:47:36;9.77;;;6.40;;
18501;SDS011;68437;52.236;5.710;2023-07-31T11:50:04;10.85;;;6.32;;
18501;SDS011;68437;52.236;5.710;2023-07-31T11:52:34;8.02;;;5.78;;
18501;SDS011;68437;52.236;5.710;2023-07-31T11:55:04;7.55;;;5.50;;
18501;SDS011;68437;52.236;5.710;2023-07-31T11:57:36;9.93;;;5.43;;
18501;SDS011;68437;52.236;5.710;2023-07-31T12:00:05;9.10;;;5.55;;
18501;SDS011;68437;52.236;5.710;2023-07-31T12:02:34;9.48;;;5.40;;
18501;SDS011;68437;52.236;5.710;2023-07-31T12:05:02;8.95;;;5.32;;
18501;SDS011;68437;52.236;5.710;2023-07-31T12:07:42;7.88;;;4.50;;
18501;SDS011;68437;52.236;5.710;2023-07-31T12:10:10;6.85;;;4.10;;
18501;SDS011;68437;52.236;5.710;2023-07-31T12:12:38;11.57;;;4.22;;
18501;SDS011;68437;52.236;5.710;2023-07-31T12:15:13;6.85;;;4.20;;
18501;SDS011;68437;52.236;5.710;2023-07-31T12:17:41;6.70;;;4.40;;
18501;SDS011;68437;52.236;5.710;2023-07-31T12:20:09;7.88;;;4.60;;
18501;SDS011;68437;52.236;5.710;2023-07-31T12:22:36;7.72;;;4.88;;
18501;SDS011;68437;52.236;5.710;2023-07-31T12:25:03;8.43;;;5.00;;
18501;SDS011;68437;52.236;5.710;2023-07-31T12:27:32;7.80;;;5.90;;
18501;SDS011;68437;52.236;5.710;2023-07-31T12:30:01;9.65;;;5.95;;
18501;SDS011;68437;52.236;5.710;2023-07-31T12:32:29;10.75;;;6.50;;
18501;SDS011;68437;52.236;5.710;2023-07-31T12:34:59;15.50;;;7.00;;
18501;SDS011;68437;52.236;5.710;2023-07-31T12:37:28;15.05;;;8.10;;
18501;SDS011;68437;52.236;5.710;2023-07-31T12:39:55;15.02;;;8.02;;
18501;SDS011;68437;52.236;5.710;2023-07-31T12:42:25;15.68;;;8.98;;
18501;SDS011;68437;52.236;5.710;2023-07-31T12:44:52;16.63;;;9.73;;
18501;SDS011;68437;52.236;5.710;2023-07-31T12:47:21;14.73;;;8.90;;
18501;SDS011;68437;52.236;5.710;2023-07-31T12:49:47;16.08;;;8.95;;
18501;SDS011;68437;52.236;5.710;2023-07-31T12:52:14;14.07;;;8.95;;
18501;SDS011;68437;52.236;5.710;2023-07-31T12:54:41;15.55;;;9.07;;
18501;SDS011;68437;52.236;5.710;2023-07-31T12:57:08;14.65;;;8.68;;
18501;SDS011;68437;52.236;5.710;2023-07-31T12:59:35;12.27;;;8.77;;
18501;SDS011;68437;52.236;5.710;2023-07-31T13:02:02;14.45;;;8.63;;
18501;SDS011;68437;52.236;5.710;2023-07-31T13:04:30;11.15;;;7.82;;
18501;SDS011;68437;52.236;5.710;2023-07-31T13:06:57;11.55;;;7.47;;
18501;SDS011;68437;52.236;5.710;2023-07-31T13:09:24;12.10;;;7.95;;
18501;SDS011;68437;52.236;5.710;2023-07-31T13:11:51;11.27;;;7.80;;
18501;SDS011;68437;52.236;5.710;2023-07-31T13:14:17;11.73;;;8.05;;
18501;SDS011;68437;52.236;5.710;2023-07-31T13:16:44;12.52;;;8.45;;
18501;SDS011;68437;52.236;5.710;2023-07-31T13:19:11;13.95;;;8.52;;
18501;SDS011;68437;52.236;5.710;2023-07-31T13:21:39;11.30;;;8.35;;
18501;SDS011;68437;52.236;5.710;2023-07-31T13:24:06;12.25;;;8.27;;
18501;SDS011;68437;52.236;5.710;2023-07-31T13:26:33;12.25;;;8.35;;
18501;SDS011;68437;52.236;5.710;2023-07-31T13:29:00;12.18;;;8.55;;
18501;SDS011;68437;52.236;5.710;2023-07-31T13:31:27;12.82;;;8.32;;
18501;SDS011;68437;52.236;5.710;2023-07-31T13:33:54;11.77;;;9.02;;
18501;SDS011;68437;52.236;5.710;2023-07-31T13:36:21;14.50;;;9.35;;
18501;SDS011;68437;52.236;5.710;2023-07-31T13:38:49;16.33;;;9.10;;
18501;SDS011;68437;52.236;5.710;2023-07-31T13:41:16;11.02;;;8.70;;
18501;SDS011;68437;52.236;5.710;2023-07-31T13:43:43;12.70;;;9.35;;
18501;SDS011;68437;52.236;5.710;2023-07-31T13:46:09;12.90;;;9.10;;
18501;SDS011;68437;52.236;5.710;2023-07-31T13:48:37;12.05;;;8.90;;
18501;SDS011;68437;52.236;5.710;2023-07-31T13:51:03;13.93;;;9.55;;
18501;SDS011;68437;52.236;5.710;2023-07-31T13:53:30;16.40;;;9.63;;
18501;SDS011;68437;52.236;5.710;2023-07-31T13:55:59;14.32;;;9.82;;
18501;SDS011;68437;52.236;5.710;2023-07-31T13:58:26;15.82;;;9.82;;
18501;SDS011;68437;52.236;5.710;2023-07-31T14:00:52;12.98;;;9.73;;
18501;SDS011;68437;52.236;5.710;2023-07-31T14:03:19;11.52;;;8.50;;
18501;SDS011;68437;52.236;5.710;2023-07-31T14:05:46;12.90;;;8.63;;
18501;SDS011;68437;52.236;5.710;2023-07-31T14:08:13;12.05;;;8.02;;
18501;SDS011;68437;52.236;5.710;2023-07-31T14:10:40;12.85;;;8.00;;
18501;SDS011;68437;52.236;5.710;2023-07-31T14:13:08;11.95;;;8.40;;
18501;SDS011;68437;52.236;5.710;2023-07-31T14:15:35;13.98;;;8.73;;
18501;SDS011;68437;52.236;5.710;2023-07-31T14:18:02;13.30;;;8.75;;
18501;SDS011;68437;52.236;5.710;2023-07-31T14:20:29;8.77;;;6.88;;
18501;SDS011;68437;52.236;5.710;2023-07-31T14:22:56;7.65;;;6.13;;
18501;SDS011;68437;52.236;5.710;2023-07-31T14:25:24;10.60;;;6.32;;
18501;SDS011;68437;52.236;5.710;2023-07-31T14:27:51;9.40;;;6.93;;
18501;SDS011;68437;52.236;5.710;2023-07-31T14:30:19;8.63;;;6.32;;
18501;SDS011;68437;52.236;5.710;2023-07-31T14:32:46;9.68;;;7.43;;
18501;SDS011;68437;52.236;5.710;2023-07-31T14:35:13;12.38;;;7.75;;
18501;SDS011;68437;52.236;5.710;2023-07-31T14:37:40;11.68;;;7.82;;